Time;durP1;ratioP1;P1;durP2;ratioP2;P2;SDS_P1;SDS_P2;PMS_P1;PMS_P2;Temp;Humidity;BMP_temperature;BMP_pressure;BME280_temperature;BME280_humidity;BME280_pressure;Samples;Min_cycle;Max_cycle;Signal;HPM_P1;HPM_P2
2022/04/19 00:02:05;;;;;;;12.63;7.95;;;;;;;20.74;40.55;101663.22;5050398;28;20870;-39
2022/04/19 00:04:31;;;;;;;13.38;8.20;;;;;;;20.74;40.92;101659.69;5051592;28;20091;-39
2022/04/19 00:06:58;;;;;;;14.40;8.23;;;;;;;20.73;40.63;101655.31;5049204;28;20671;-40
2022/04/19 00:09:24;;;;;;;12.20;7.55;;;;;;;20.72;40.47;101656.31;5049179;28;20129;-39
2022/04/19 00:11:51;;;;;;;11.38;7.20;;;;;;;20.72;41.13;101656.31;5047665;28;20123;-39
2022/04/19 00:14:18;;;;;;;12.85;7.70;;;;;;;20.70;40.64;101654.63;5048226;28;20407;-39
2022/04/19 00:16:45;;;;;;;13.07;7.47;;;;;;;20.69;41.15;101655.59;5050200;28;20076;-39
2022/04/19 00:19:11;;;;;;;12.18;7.72;;;;;;;20.67;41.29;101660.31;5050674;28;20040;-40
2022/04/19 00:21:38;;;;;;;9.57;6.57;;;;;;;20.66;40.86;101650.53;5046702;28;20046;-39
2022/04/19 00:24:05;;;;;;;10.93;7.03;;;;;;;20.66;40.85;101649.66;5047978;28;20127;-40
2022/04/19 00:26:32;;;;;;;13.60;7.57;;;;;;;20.65;41.49;101645.28;5049323;28;20132;-40
2022/04/19 00:28:59;;;;;;;11.40;7.43;;;;;;;20.66;41.10;101649.66;5050252;28;20052;-40
2022/04/19 00:31:26;;;;;;;11.77;7.25;;;;;;;20.64;41.39;101649.81;5049110;28;20049;-39
2022/04/19 00:33:53;;;;;;;11.52;7.30;;;;;;;20.63;41.55;101642.75;5051166;28;20139;-40
2022/04/19 00:36:21;;;;;;;11.60;7.47;;;;;;;20.63;41.72;101650.00;5050796;28;20475;-40
2022/04/19 00:38:48;;;;;;;11.82;6.93;;;;;;;20.61;41.71;101642.03;5050371;28;20072;-40
2022/04/19 00:41:16;;;;;;;11.93;7.28;;;;;;;20.61;41.79;101650.13;5049572;28;20051;-40
2022/04/19 00:43:43;;;;;;;12.25;7.47;;;;;;;20.60;41.86;101645.75;5051882;28;20145;-40
2022/04/19 00:46:10;;;;;;;11.90;6.95;;;;;;;20.60;41.25;101652.97;5052313;28;20044;-40
2022/04/19 00:48:36;;;;;;;11.30;6.95;;;;;;;20.58;41.69;101647.75;5050947;28;20037;-40
2022/04/19 00:51:04;;;;;;;11.45;7.05;;;;;;;20.57;41.96;101648.72;5049690;28;20132;-40
2022/04/19 00:53:30;;;;;;;10.32;6.78;;;;;;;20.58;41.86;101652.28;5049627;28;20041;-40
2022/04/19 00:55:57;;;;;;;10.63;7.05;;;;;;;20.55;41.75;101647.22;5049868;28;20131;-40
2022/04/19 00:58:24;;;;;;;10.98;6.78;;;;;;;20.54;41.23;101640.94;5028377;28;20052;-40
2022/04/19 01:00:51;;;;;;;13.07;7.10;;;;;;;20.53;41.27;101636.56;5049199;28;20099;-40
2022/04/19 01:03:18;;;;;;;10.50;6.95;;;;;;;20.54;41.74;101640.09;5049422;28;20076;-40
2022/04/19 01:05:46;;;;;;;11.48;7.38;;;;;;;20.52;41.82;101639.41;5049511;28;20037;-40
2022/04/19 01:08:13;;;;;;;11.05;7.05;;;;;;;20.50;41.44;101634.16;5048285;28;20132;-40
2022/04/19 01:10:42;;;;;;;9.13;5.90;;;;;;;20.51;41.91;101640.44;5047688;28;20043;-41
2022/04/19 01:13:18;;;;;;;11.10;6.72;;;;;;;20.48;41.49;101630.75;5049604;28;20484;-40
2022/04/19 01:15:49;;;;;;;10.40;6.90;;;;;;;20.48;41.53;101641.53;5050010;28;20103;-40
2022/04/19 01:18:20;;;;;;;9.02;5.85;;;;;;;20.47;41.93;101637.16;5049156;28;20069;-40
2022/04/19 01:20:48;;;;;;;10.80;6.95;;;;;;;20.46;42.12;101639.00;5048877;28;20076;-40
2022/04/19 01:23:19;;;;;;;10.55;6.97;;;;;;;20.44;42.12;101635.59;5048281;28;20041;-40
2022/04/19 01:25:46;;;;;;;11.30;6.18;;;;;;;20.44;41.54;101634.75;5052345;28;20150;-40
2022/04/19 01:28:13;;;;;;;10.35;6.53;;;;;;;20.43;41.71;101638.44;5046404;28;20238;-40
2022/04/19 01:30:43;;;;;;;9.95;6.15;;;;;;;20.42;41.85;101634.03;5050171;28;20051;-40
2022/04/19 01:33:10;;;;;;;11.00;6.55;;;;;;;20.41;41.91;101635.03;5048331;28;20055;-40
2022/04/19 01:35:36;;;;;;;11.18;6.18;;;;;;;20.38;42.23;101628.13;5048322;28;20348;-40
2022/04/19 01:38:03;;;;;;;10.45;6.55;;;;;;;20.38;41.95;101629.94;5049081;28;20041;-40
2022/04/19 01:40:30;;;;;;;10.13;5.93;;;;;;;20.37;42.42;101628.25;5049467;28;20059;-40
2022/04/19 01:43:01;;;;;;;9.77;6.30;;;;;;;20.37;41.86;101633.66;5049482;28;20041;-40
2022/04/19 01:45:30;;;;;;;9.70;5.35;;;;;;;20.35;41.64;101627.59;5049772;28;20058;-40
2022/04/19 01:47:59;;;;;;;10.07;5.70;;;;;;;20.33;41.90;101633.09;5048725;28;20061;-41
2022/04/19 01:50:28;;;;;;;8.38;5.47;;;;;;;20.33;42.07;101630.41;5049475;28;20057;-40
2022/04/19 01:52:57;;;;;;;9.57;6.05;;;;;;;20.31;42.70;101631.56;5051447;28;20044;-40
2022/04/19 01:55:23;;;;;;;13.68;5.32;;;;;;;20.32;42.04;101630.56;5050002;28;20057;-40
2022/04/19 01:57:53;;;;;;;9.55;6.00;;;;;;;20.30;42.14;101622.66;5049577;28;20089;-40
2022/04/19 02:00:20;;;;;;;9.75;6.13;;;;;;;20.29;42.50;101626.31;5025145;28;20310;-39
2022/04/19 02:02:47;;;;;;;10.18;6.32;;;;;;;20.29;42.45;101625.47;5048677;28;20384;-39
2022/04/19 02:05:15;;;;;;;7.70;5.43;;;;;;;20.28;42.21;101618.41;5030058;28;20495;-39
2022/04/19 02:07:44;;;;;;;9.18;5.55;;;;;;;20.27;42.43;101611.34;5048708;28;20052;-40
2022/04/19 02:10:13;;;;;;;11.73;6.15;;;;;;;20.27;42.35;101624.78;5046679;28;20083;-40
2022/04/19 02:12:39;;;;;;;10.82;5.22;;;;;;;20.25;42.50;101632.16;5048300;28;20487;-40
2022/04/19 02:15:08;;;;;;;11.00;5.80;;;;;;;20.25;42.11;101624.06;5048631;28;20041;-40
2022/04/19 02:17:44;;;;;;;8.82;6.13;;;;;;;20.21;42.13;101618.13;5049899;28;20045;-40
2022/04/19 02:20:11;;;;;;;8.93;5.55;;;;;;;20.21;42.98;101623.53;5049181;28;20044;-40
2022/04/19 02:22:39;;;;;;;8.60;5.53;;;;;;;20.20;42.19;101621.84;5050606;28;20073;-40
2022/04/19 02:25:06;;;;;;;7.63;4.90;;;;;;;20.19;42.31;101614.75;5051055;28;20093;-40
2022/04/19 02:27:33;;;;;;;8.32;5.32;;;;;;;20.18;42.24;101622.00;5053685;28;20055;-40
2022/04/19 02:30:03;;;;;;;9.02;5.35;;;;;;;20.18;42.65;101618.44;5050501;28;20140;-39
2022/04/19 02:32:30;;;;;;;8.63;5.43;;;;;;;20.16;42.48;101620.44;5053228;28;20041;-40
2022/04/19 02:34:57;;;;;;;6.60;4.88;;;;;;;20.15;42.81;101614.22;5053691;28;20096;-40
2022/04/19 02:37:24;;;;;;;8.90;5.45;;;;;;;20.14;42.85;101615.22;5052354;28;20407;-40
2022/04/19 02:39:50;;;;;;;8.50;5.30;;;;;;;20.12;42.92;101617.19;5054755;28;20049;-40
2022/04/19 02:42:17;;;;;;;6.95;5.22;;;;;;;20.10;43.08;101611.13;5050744;28;20051;-40
2022/04/19 02:44:44;;;;;;;11.73;5.25;;;;;;;20.10;42.50;101616.50;5053719;28;20047;-39
2022/04/19 02:47:10;;;;;;;7.47;5.05;;;;;;;20.10;42.76;101610.25;5049862;28;20120;-39
2022/04/19 02:49:37;;;;;;;10.00;5.70;;;;;;;20.09;43.04;101614.78;5048426;28;20055;-39
2022/04/19 02:52:04;;;;;;;8.40;5.18;;;;;;;20.07;42.82;101611.41;5050089;28;20131;-40
2022/04/19 02:54:31;;;;;;;7.93;4.93;;;;;;;20.06;43.30;101608.84;5049462;28;20055;-39
2022/04/19 02:56:58;;;;;;;8.23;4.72;;;;;;;20.05;43.12;101616.09;5050547;28;20049;-40
2022/04/19 02:59:24;;;;;;;7.57;5.20;;;;;;;20.04;42.55;101613.56;5051079;28;20138;-40
2022/04/19 03:01:51;;;;;;;8.10;5.20;;;;;;;20.04;43.21;101613.56;5051911;28;20519;-40
2022/04/19 03:04:19;;;;;;;7.03;4.80;;;;;;;20.01;43.22;101606.63;5053104;28;20052;-40
2022/04/19 03:06:46;;;;;;;8.57;5.30;;;;;;;20.03;43.50;101601.09;5054170;28;20056;-39
2022/04/19 03:09:13;;;;;;;8.48;4.93;;;;;;;20.01;42.86;101601.22;5051751;28;20072;-39
2022/04/19 03:11:39;;;;;;;8.20;5.03;;;;;;;19.99;43.10;101597.84;5050798;28;20124;-40
2022/04/19 03:14:06;;;;;;;7.95;5.20;;;;;;;19.99;42.78;101600.53;5051618;28;20428;-40
2022/04/19 03:16:33;;;;;;;6.65;4.40;;;;;;;19.98;43.24;101606.94;5051344;28;20152;-40
2022/04/19 03:19:00;;;;;;;7.60;4.53;;;;;;;19.96;43.15;101599.00;5051379;28;20103;-40
2022/04/19 03:21:27;;;;;;;6.45;4.35;;;;;;;19.95;43.01;101602.69;5051543;28;20093;-40
2022/04/19 03:29:23;;;;;;;6.95;4.63;;;;;;;19.94;42.99;101608.22;5036613;28;20120;-40
2022/04/19 03:31:49;;;;;;;6.75;4.45;;;;;;;19.93;42.84;101604.66;5031625;28;20096;-40
2022/04/19 03:34:16;;;;;;;6.22;4.05;;;;;;;19.92;43.57;101607.50;5032841;28;20132;-40
2022/04/19 03:36:46;;;;;;;6.72;4.50;;;;;;;19.91;43.51;101603.97;5032783;28;20057;-40
2022/04/19 03:39:12;;;;;;;6.32;4.38;;;;;;;19.89;42.98;101597.03;5034283;28;20041;-40
2022/04/19 03:41:40;;;;;;;5.55;4.15;;;;;;;19.88;43.48;101598.03;5033267;28;20539;-40
2022/04/19 03:44:07;;;;;;;5.60;3.78;;;;;;;19.87;43.22;101599.88;5033838;28;20045;-40
2022/04/19 03:47:07;;;;;;;6.63;4.30;;;;;;;19.87;43.43;101602.56;5034342;28;20059;-40
2022/04/19 03:49:20;;;;;;;5.50;3.88;;;;;;;19.86;43.56;101610.78;5032939;28;20124;-40
2022/04/19 03:51:47;;;;;;;5.82;4.15;;;;;;;19.84;42.92;101600.16;5040677;28;20065;-40
2022/04/19 03:54:13;;;;;;;6.95;4.43;;;;;;;19.82;43.60;101602.19;5031575;28;20183;-40
2022/04/19 03:56:40;;;;;;;6.72;4.20;;;;;;;19.80;43.26;101597.94;5036899;28;20125;-40
2022/04/19 03:59:09;;;;;;;5.53;4.15;;;;;;;19.79;43.91;101602.47;5029475;28;20048;-40
2022/04/19 04:01:39;;;;;;;7.28;4.28;;;;;;;19.79;43.92;101607.00;5035114;28;20041;-40
2022/04/19 04:04:09;;;;;;;7.18;4.45;;;;;;;19.79;43.61;101601.63;5031665;28;20041;-40
2022/04/19 04:06:35;;;;;;;7.30;4.28;;;;;;;19.78;43.49;101603.47;5034810;28;20144;-40
2022/04/19 04:09:03;;;;;;;8.43;4.38;;;;;;;19.75;44.25;101603.75;5034875;28;20068;-40
2022/04/19 04:11:29;;;;;;;7.57;4.72;;;;;;;19.74;44.04;101604.75;5032362;28;20060;-40
2022/04/19 04:13:56;;;;;;;9.45;4.47;;;;;;;19.75;43.86;101600.22;5035982;28;21565;-40
2022/04/19 04:16:22;;;;;;;10.32;5.88;;;;;;;19.75;43.92;101600.22;5031038;28;20080;-40
2022/04/19 04:18:49;;;;;;;11.18;5.28;;;;;;;19.75;43.32;101594.84;5033110;28;20053;-40
2022/04/19 04:21:16;;;;;;;9.38;5.10;;;;;;;19.74;43.07;101596.69;5033093;28;20054;-40
2022/04/19 04:23:42;;;;;;;9.98;4.90;;;;;;;19.72;43.53;101596.81;5033331;28;20048;-40
2022/04/19 04:26:09;;;;;;;12.32;5.03;;;;;;;19.70;43.29;101598.81;5047192;28;20335;-40
2022/04/19 04:28:35;;;;;;;13.07;5.75;;;;;;;19.69;43.70;101594.41;5049734;28;20128;-40
2022/04/19 04:31:02;;;;;;;10.85;4.75;;;;;;;19.68;43.50;101595.41;5048135;28;20043;-40
2022/04/19 04:33:29;;;;;;;9.30;4.60;;;;;;;19.68;43.35;101598.09;5050901;28;20045;-40
2022/04/19 04:35:58;;;;;;;11.65;5.22;;;;;;;19.67;43.36;101603.63;5051486;28;20044;-40
2022/04/19 04:38:24;;;;;;;11.55;5.50;;;;;;;19.65;43.17;101602.91;5051215;28;20052;-40
2022/04/19 04:40:51;;;;;;;14.15;5.75;;;;;;;19.65;43.16;101608.28;5050599;28;20140;-40
2022/04/19 04:43:18;;;;;;;10.10;5.10;;;;;;;19.62;43.12;101612.16;5052342;28;20100;-40
2022/04/19 04:45:44;;;;;;;9.20;4.80;;;;;;;19.62;43.10;101614.00;5052894;28;20086;-40
2022/04/19 04:50:56;;;;;;;10.38;5.20;;;;;;;19.61;43.35;101615.81;5053721;28;20051;-40
2022/04/19 04:53:23;;;;;;;10.50;4.95;;;;;;;19.61;43.48;101620.31;5051381;28;20037;-40
2022/04/19 04:55:49;;;;;;;11.35;6.30;;;;;;;19.60;43.72;101614.09;5049114;28;20053;-40
2022/04/19 04:58:16;;;;;;;9.93;5.82;;;;;;;19.60;43.79;101622.16;5050714;28;20037;-40
2022/04/19 05:00:42;;;;;;;12.23;6.07;;;;;;;19.57;43.39;101622.44;5050859;28;20132;-41
2022/04/19 05:03:09;;;;;;;10.43;5.93;;;;;;;19.58;43.48;101621.47;5050945;28;20077;-40
2022/04/19 05:05:35;;;;;;;10.93;6.25;;;;;;;19.57;43.78;101614.38;5050465;28;20049;-40
2022/04/19 05:08:03;;;;;;;10.88;6.57;;;;;;;19.60;43.41;101618.63;5050769;28;20045;-40
2022/04/19 05:10:30;;;;;;;10.15;5.43;;;;;;;19.60;43.42;101614.09;5051756;28;20086;-40
2022/04/19 05:12:57;;;;;;;8.63;5.82;;;;;;;19.61;43.58;101626.56;5052331;28;20041;-40
2022/04/19 05:15:23;;;;;;;10.70;6.38;;;;;;;19.62;43.04;101620.22;5049763;28;20036;-40
2022/04/19 05:17:50;;;;;;;10.90;5.97;;;;;;;19.64;43.59;101626.28;5052865;28;20144;-40
2022/04/19 05:20:16;;;;;;;10.90;6.45;;;;;;;19.65;43.60;101627.97;5050585;28;20120;-40
2022/04/19 05:22:43;;;;;;;11.60;6.97;;;;;;;19.66;43.06;101624.31;5050542;28;20041;-40
2022/04/19 05:25:09;;;;;;;11.82;6.85;;;;;;;19.66;43.23;101627.00;5046955;28;20397;-40
2022/04/19 05:27:37;;;;;;;13.75;6.78;;;;;;;19.67;42.66;101625.16;5045169;28;20120;-40
2022/04/19 05:30:04;;;;;;;11.30;6.47;;;;;;;19.68;42.78;101632.22;5048822;28;20041;-40
2022/04/19 05:32:31;;;;;;;12.70;6.53;;;;;;;19.66;42.90;101629.69;5053060;28;20152;-40
2022/04/19 05:34:57;;;;;;;10.98;6.53;;;;;;;19.68;42.60;101634.91;5051796;28;20490;-40
2022/04/19 05:37:24;;;;;;;11.07;6.95;;;;;;;19.67;43.14;101634.06;5048234;28;20116;-40
2022/04/19 05:39:50;;;;;;;10.48;6.47;;;;;;;19.67;42.56;101634.06;5049750;28;20148;-40
2022/04/19 05:42:17;;;;;;;11.23;6.25;;;;;;;19.67;42.80;101638.59;5050752;28;20434;-40
2022/04/19 05:44:43;;;;;;;10.10;6.18;;;;;;;19.65;42.64;101636.03;5048113;28;20046;-40
2022/04/19 05:47:10;;;;;;;10.65;6.82;;;;;;;19.65;42.58;101643.25;5050095;28;20133;-40
2022/04/19 05:49:36;;;;;;;14.93;6.85;;;;;;;19.64;43.03;101637.03;5047676;28;20081;-40
2022/04/19 05:52:03;;;;;;;11.77;6.40;;;;;;;19.64;42.86;101641.56;5048905;28;20476;-40
2022/04/19 05:54:30;;;;;;;12.20;6.40;;;;;;;19.64;42.38;101639.72;5051142;28;20120;-40
2022/04/19 05:56:56;;;;;;;13.20;7.00;;;;;;;19.62;43.00;101639.03;5054606;28;20416;-40
2022/04/19 05:59:23;;;;;;;10.90;6.57;;;;;;;19.61;42.45;101645.38;5054644;28;20047;-40
2022/04/19 06:04:53;;;;;;;12.02;6.95;;;;;;;19.61;42.69;101642.69;5045239;28;20045;-40
2022/04/19 06:07:20;;;;;;;11.18;6.63;;;;;;;19.61;42.80;101645.38;5053937;28;20056;-40
2022/04/19 06:09:53;;;;;;;13.63;6.97;;;;;;;19.61;42.86;101650.75;5053573;28;20438;-40
2022/04/19 06:12:20;;;;;;;10.52;6.68;;;;;;;19.60;43.17;101640.97;5053019;28;20049;-40
2022/04/19 06:14:47;;;;;;;11.40;7.50;;;;;;;19.60;42.94;101649.03;5050987;28;20088;-40
2022/04/19 06:17:15;;;;;;;11.32;7.18;;;;;;;19.60;42.68;101646.34;5052580;28;20051;-40
2022/04/19 06:19:42;;;;;;;11.05;7.53;;;;;;;19.60;42.73;101649.03;5052214;28;20063;-40
2022/04/19 06:22:08;;;;;;;10.55;7.32;;;;;;;19.61;43.19;101653.44;5054057;28;20045;-40
2022/04/19 06:24:35;;;;;;;12.73;7.97;;;;;;;19.62;42.85;101652.47;5051945;28;20055;-41
2022/04/19 06:27:03;;;;;;;12.20;6.90;;;;;;;19.63;43.39;101661.41;5049853;28;20317;-40
2022/04/19 06:29:29;;;;;;;12.90;7.85;;;;;;;19.63;43.35;101650.63;5051657;28;20057;-40
2022/04/19 06:31:56;;;;;;;10.95;6.82;;;;;;;19.64;43.44;101658.56;5052203;28;20132;-40
2022/04/19 06:34:22;;;;;;;13.30;7.22;;;;;;;19.64;43.29;101655.03;5052685;28;20049;-40
2022/04/19 06:36:49;;;;;;;10.75;7.30;;;;;;;19.66;43.30;101661.97;5049397;28;20053;-40
2022/04/19 06:39:15;;;;;;;12.50;7.95;;;;;;;19.67;43.26;101657.44;5053605;28;20053;-40
2022/04/19 06:41:43;;;;;;;13.00;7.65;;;;;;;19.68;42.78;101665.34;5051639;28;20063;-40
2022/04/19 06:44:09;;;;;;;10.65;7.35;;;;;;;19.69;42.88;101656.25;5052046;28;20055;-40
2022/04/19 06:46:36;;;;;;;12.43;7.45;;;;;;;19.71;42.75;101665.06;5053275;28;20325;-40
2022/04/19 06:49:06;;;;;;;12.10;7.45;;;;;;;19.74;43.07;101663.94;5053202;28;20120;-40
2022/04/19 06:51:33;;;;;;;11.20;7.78;;;;;;;19.75;42.66;101657.56;5053126;28;20428;-40
2022/04/19 06:54:00;;;;;;;12.85;7.63;;;;;;;19.77;42.56;101660.09;5051223;28;20124;-40
2022/04/19 06:56:27;;;;;;;10.43;7.22;;;;;;;19.79;42.77;101660.81;5051955;28;20103;-40
2022/04/19 06:58:54;;;;;;;12.45;7.10;;;;;;;19.80;43.08;101663.34;5052869;28;20053;-40
2022/04/19 07:01:23;;;;;;;10.57;7.35;;;;;;;19.81;42.57;101667.72;5049566;28;20043;-40
2022/04/19 07:03:50;;;;;;;12.10;7.10;;;;;;;19.84;42.37;101661.19;5053170;28;20056;-40
2022/04/19 07:06:16;;;;;;;12.00;7.03;;;;;;;19.85;42.55;101661.03;5052046;28;20424;-40
2022/04/19 07:08:43;;;;;;;12.40;7.28;;;;;;;19.87;42.99;101667.16;5050519;28;20040;-40
2022/04/19 07:11:12;;;;;;;10.10;6.50;;;;;;;19.89;42.35;101675.06;5050612;28;20053;-40
2022/04/19 07:13:39;;;;;;;12.00;7.43;;;;;;;19.90;42.67;101665.97;5052784;28;20068;-40
2022/04/19 07:16:06;;;;;;;10.73;7.18;;;;;;;19.91;42.50;101671.25;5047085;28;20055;-40
2022/04/19 07:18:32;;;;;;;10.02;6.85;;;;;;;19.92;42.59;101677.47;5051327;28;20504;-40
2022/04/19 07:26:40;;;;;;;11.85;7.63;;;;;;;19.98;42.16;101676.91;5033460;28;20033;-40
2022/04/19 07:29:11;;;;;;;11.20;6.82;;;;;;;19.99;42.54;101675.91;5050509;28;20139;-40
2022/04/19 07:31:42;;;;;;;10.45;7.03;;;;;;;20.01;42.48;101675.72;5050437;28;20372;-40
2022/04/19 07:34:09;;;;;;;11.05;6.55;;;;;;;20.02;42.58;101674.72;5050793;28;20059;-40
2022/04/19 07:36:42;;;;;;;10.40;6.78;;;;;;;20.03;41.93;101674.59;5052074;28;20758;-40
2022/04/19 07:39:13;;;;;;;10.05;6.25;;;;;;;20.05;42.10;101685.22;5050011;28;20414;-40
2022/04/19 07:41:40;;;;;;;10.88;6.80;;;;;;;20.05;42.05;101674.44;5049524;28;20124;-40
2022/04/19 07:44:14;;;;;;;9.50;6.18;;;;;;;20.06;42.01;101673.44;5050040;28;20662;-39
2022/04/19 07:46:44;;;;;;;10.10;6.68;;;;;;;20.07;42.30;101684.09;5052058;28;20119;-40
2022/04/19 07:49:11;;;;;;;10.13;6.80;;;;;;;20.07;42.01;101678.69;5048094;28;20052;-39
2022/04/19 07:51:37;;;;;;;12.80;7.22;;;;;;;20.09;42.17;101682.06;5053072;28;20045;-40
2022/04/19 07:54:04;;;;;;;15.68;6.22;;;;;;;20.11;42.45;101677.41;5052837;28;20123;-40
2022/04/19 07:56:31;;;;;;;11.73;6.40;;;;;;;20.12;41.87;101683.63;5051138;28;20254;-40
2022/04/19 07:58:57;;;;;;;9.55;6.45;;;;;;;20.13;42.40;101680.78;5051376;28;20131;-40
2022/04/19 08:01:30;;;;;;;10.67;7.27;;;;;;;20.13;41.75;101678.09;5046928;28;20080;-40
2022/04/19 08:03:57;;;;;;;10.52;6.90;;;;;;;20.15;41.97;101673.44;5048506;28;22531;-40
2022/04/19 08:06:24;;;;;;;9.65;6.28;;;;;;;20.16;41.66;101680.50;5051704;28;20128;-40
2022/04/19 08:08:50;;;;;;;9.93;6.50;;;;;;;20.17;42.07;101679.50;5049904;28;20092;-40
2022/04/19 08:11:17;;;;;;;10.18;6.43;;;;;;;20.18;41.73;101670.44;5051034;28;20075;-40
2022/04/19 08:13:43;;;;;;;10.35;6.38;;;;;;;20.18;42.59;101667.75;5050295;28;20132;-40
2022/04/19 08:16:10;;;;;;;7.45;5.47;;;;;;;20.21;41.94;101674.66;5051394;28;20045;-40
2022/04/19 08:18:37;;;;;;;9.45;6.10;;;;;;;20.21;41.94;101670.13;5044567;28;20040;-40
2022/04/19 08:21:04;;;;;;;9.65;6.20;;;;;;;20.24;42.50;101668.16;5053486;28;20049;-40
2022/04/19 08:23:30;;;;;;;8.68;6.05;;;;;;;20.23;42.00;101669.16;5052619;28;20124;-40
2022/04/19 08:25:57;;;;;;;10.40;6.25;;;;;;;20.25;41.77;101673.38;5051708;28;20052;-40
2022/04/19 08:28:24;;;;;;;7.90;5.63;;;;;;;20.26;41.70;101669.72;5047588;28;20789;-40
2022/04/19 08:30:50;;;;;;;9.98;6.18;;;;;;;20.27;41.70;101667.88;5047726;28;20463;-40
2022/04/19 08:33:17;;;;;;;10.88;6.25;;;;;;;20.28;42.17;101675.78;5048350;28;20091;-40
2022/04/19 08:35:43;;;;;;;8.48;5.45;;;;;;;20.29;41.81;101660.47;5047561;28;20490;-40
2022/04/19 08:38:10;;;;;;;11.13;6.15;;;;;;;20.30;42.00;101672.94;5049827;28;20124;-40
2022/04/19 08:40:37;;;;;;;9.80;6.30;;;;;;;20.31;42.50;101669.25;5050508;28;20128;-40
2022/04/19 08:43:03;;;;;;;9.55;5.75;;;;;;;20.32;42.01;101669.09;5050095;28;20048;-40
2022/04/19 08:45:30;;;;;;;9.27;6.53;;;;;;;20.33;41.97;101670.78;5051036;28;20053;-40
2022/04/19 08:47:58;;;;;;;10.60;6.68;;;;;;;20.34;42.17;101672.50;5048515;28;20981;-40
2022/04/19 08:50:25;;;;;;;10.18;6.43;;;;;;;20.36;42.40;101666.97;5043935;28;20124;-40
2022/04/19 08:57:29;;;;;;;11.05;5.88;;;;;;;20.37;42.88;101665.97;5048238;28;20049;-40
2022/04/19 08:58:23;;;;;;;11.95;6.28;;;;;;;20.41;42.26;101672.75;5048880;28;20045;-40
2022/04/19 09:00:50;;;;;;;11.55;5.53;;;;;;;20.42;42.92;101674.44;5049294;28;20085;-40
2022/04/19 09:03:19;;;;;;;13.32;6.45;;;;;;;20.43;42.74;101668.91;5049887;28;20055;-40
2022/04/19 09:05:55;;;;;;;18.63;7.53;;;;;;;20.45;43.02;101669.59;5047653;28;20084;-40
2022/04/19 09:08:21;;;;;;;20.70;8.88;;;;;;;20.46;42.54;101665.94;5047962;28;20041;-40
2022/04/19 09:10:50;;;;;;;24.35;8.32;;;;;;;20.49;42.61;101663.94;5047288;28;20099;-40
2022/04/19 09:13:21;;;;;;;26.25;9.10;;;;;;;20.50;42.50;101660.25;5048821;28;20126;-40
2022/04/19 09:15:49;;;;;;;25.42;9.65;;;;;;;20.53;43.00;101665.34;5048712;28;20081;-40
2022/04/19 09:18:18;;;;;;;28.58;9.35;;;;;;;20.54;42.94;101667.88;5049830;28;20599;-40
2022/04/19 09:20:50;;;;;;;31.88;9.80;;;;;;;20.57;43.28;101656.81;5050765;28;20143;-40
2022/04/19 09:23:17;;;;;;;19.85;8.00;;;;;;;20.59;42.91;101664.75;5047920;28;20075;-40
2022/04/19 09:25:44;;;;;;;22.02;9.55;;;;;;;20.61;43.13;101655.50;5049104;28;20778;-40
2022/04/19 09:28:29;;;;;;;25.50;9.23;;;;;;;20.64;43.19;101657.06;5048642;28;20041;-40
2022/04/19 09:30:58;;;;;;;25.23;9.30;;;;;;;20.67;42.78;101660.31;5048564;28;20059;-40
2022/04/19 09:33:27;;;;;;;20.52;8.43;;;;;;;20.71;43.32;101652.78;5050220;28;20136;-40
2022/04/19 09:36:04;;;;;;;21.27;8.93;;;;;;;20.75;43.43;101653.31;5049612;28;20128;-40
2022/04/19 09:38:37;;;;;;;22.75;8.18;;;;;;;20.79;42.77;101655.56;5049648;28;20079;-41
2022/04/19 09:41:06;;;;;;;22.60;7.85;;;;;;;20.83;42.95;101648.88;5050850;28;20682;-41
2022/04/19 09:44:27;;;;;;;21.70;7.95;;;;;;;20.88;42.94;101637.63;5044661;28;20081;-40
2022/04/19 09:47:04;;;;;;;18.02;8.00;;;;;;;20.93;42.41;101643.41;4942262;28;20047;-40
2022/04/19 09:49:53;;;;;;;22.90;8.82;;;;;;;20.98;42.65;101638.38;5038728;28;20045;-40
2022/04/19 09:52:22;;;;;;;21.67;8.65;;;;;;;21.02;42.81;101639.75;5049745;28;20119;-41
2022/04/19 09:54:59;;;;;;;16.88;7.30;;;;;;;21.07;42.58;101632.09;5051150;28;20577;-42
2022/04/19 09:57:28;;;;;;;18.75;7.53;;;;;;;21.11;42.07;101636.16;5047331;28;20055;-43
2022/04/19 09:59:55;;;;;;;21.48;7.70;;;;;;;21.14;42.20;101638.53;5049926;28;20049;-41
2022/04/19 10:08:11;;;;;;;16.30;6.95;;;;;;;21.28;42.12;101634.47;5047505;28;20140;-42
2022/04/19 10:10:38;;;;;;;15.27;6.65;;;;;;;21.32;41.83;101640.38;5048089;28;20148;-42
2022/04/19 10:13:05;;;;;;;16.85;7.05;;;;;;;21.35;41.74;101629.31;5046539;28;20073;-41
2022/04/19 10:15:32;;;;;;;14.00;7.10;;;;;;;21.37;41.64;101633.53;5045372;28;20123;-42
2022/04/19 10:18:00;;;;;;;16.08;7.10;;;;;;;21.40;41.99;101627.84;5050549;28;20045;-40
2022/04/19 10:20:32;;;;;;;16.90;6.93;;;;;;;21.43;41.75;101643.72;5050260;28;20048;-39
2022/04/19 10:23:09;;;;;;;15.23;6.68;;;;;;;21.47;41.61;101635.28;5046738;28;20413;-39
2022/04/19 10:25:48;;;;;;;15.27;7.68;;;;;;;21.50;41.80;101637.69;5047865;28;20043;-39
2022/04/19 10:28:25;;;;;;;19.10;6.80;;;;;;;21.53;41.70;101637.38;5047969;28;20041;-40
2022/04/19 10:30:53;;;;;;;18.25;6.47;;;;;;;21.53;41.59;101632.81;5044064;28;20053;-40
2022/04/19 10:33:39;;;;;;;11.55;5.85;;;;;;;21.55;41.95;101625.44;5048155;28;21341;-40
2022/04/19 10:36:14;;;;;;;12.45;6.00;;;;;;;21.58;41.58;101638.59;5049940;28;20103;-41
2022/04/19 10:38:43;;;;;;;14.13;6.13;;;;;;;21.60;41.57;101628.50;5049450;28;20123;-40
2022/04/19 10:41:10;;;;;;;12.38;5.70;;;;;;;21.61;41.68;101627.47;5029868;28;20148;-40
2022/04/19 10:43:36;;;;;;;13.35;5.72;;;;;;;21.64;41.61;101634.44;5053755;28;20047;-41
2022/04/19 10:46:22;;;;;;;14.15;6.55;;;;;;;21.64;41.65;101623.63;5051498;28;20413;-40
2022/04/19 10:49:25;;;;;;;14.93;5.78;;;;;;;21.65;41.89;101623.47;5052981;28;20643;-40
2022/04/19 10:51:52;;;;;;;15.00;6.20;;;;;;;21.68;41.39;101617.75;5052917;28;20053;-39
2022/04/19 10:55:02;;;;;;;10.85;5.07;;;;;;;21.69;41.52;101619.44;5049688;28;20053;-40
2022/04/19 11:01:00;;;;;;;11.27;5.95;;;;;;;21.74;41.98;101615.41;5048262;28;20045;-41
2022/04/19 11:03:30;;;;;;;11.57;5.68;;;;;;;21.76;41.88;101621.50;5052108;28;20087;-40
2022/04/19 11:05:57;;;;;;;10.38;5.55;;;;;;;21.77;41.72;101620.50;5051772;28;20115;-41
2022/04/19 11:08:24;;;;;;;11.73;5.75;;;;;;;21.78;41.35;101620.34;5052538;28;20044;-40
2022/04/19 11:10:56;;;;;;;12.23;4.85;;;;;;;21.79;41.85;101615.78;5050133;28;20089;-40
2022/04/19 11:13:27;;;;;;;9.77;5.25;;;;;;;21.80;41.80;101626.44;5050616;28;20158;-41
2022/04/19 11:15:58;;;;;;;11.00;5.68;;;;;;;21.81;41.56;101617.31;5050916;28;20136;-41
2022/04/19 11:18:27;;;;;;;10.32;5.22;;;;;;;21.83;41.81;101617.16;5054042;28;20139;-41
2022/04/19 11:20:56;;;;;;;11.02;5.30;;;;;;;21.83;41.78;101612.63;5051720;28;20080;-41
2022/04/19 11:23:25;;;;;;;8.70;4.80;;;;;;;21.86;41.40;101611.44;5049465;28;20049;-41
2022/04/19 11:25:53;;;;;;;11.20;5.15;;;;;;;21.86;41.51;101612.28;5051432;28;20044;-41
2022/04/19 11:28:22;;;;;;;9.93;5.00;;;;;;;21.89;41.55;101611.97;5052211;28;20155;-41
2022/04/19 11:30:58;;;;;;;12.00;5.75;;;;;;;21.90;41.53;101607.41;5050673;28;20152;-41
2022/04/19 11:33:28;;;;;;;9.20;4.90;;;;;;;21.91;41.54;101603.72;5051888;28;20078;-41
2022/04/19 11:36:00;;;;;;;10.13;4.40;;;;;;;21.92;41.44;101600.84;5051717;28;20125;-41
2022/04/19 11:38:28;;;;;;;8.90;4.68;;;;;;;21.93;41.58;101601.69;5051441;28;20558;-41
2022/04/19 11:46:45;;;;;;;6.80;4.13;;;;;;;21.96;41.29;101598.69;5048160;28;20053;-41
2022/04/19 11:49:25;;;;;;;8.57;4.90;;;;;;;21.98;41.30;101595.81;5053360;28;20037;-41
2022/04/19 11:51:54;;;;;;;8.70;4.43;;;;;;;22.00;41.36;101593.81;5050431;28;20041;-41
2022/04/19 11:54:32;;;;;;;8.13;4.72;;;;;;;22.01;41.32;101593.63;5032533;28;20080;-41
2022/04/19 11:57:06;;;;;;;9.85;4.80;;;;;;;22.03;41.50;101593.47;5050058;28;20154;-42
2022/04/19 11:59:36;;;;;;;8.77;4.40;;;;;;;22.03;41.37;101593.47;5050221;28;20120;-41
2022/04/19 12:02:12;;;;;;;7.93;4.70;;;;;;;22.04;41.36;101593.31;5049203;28;20045;-41